Birds, Illinois
Current Conditions -  °F | °C
As of 1:53 AM on Thursday 27 Nov 2014 (Local Time) from KLWV Reporting Station
Haze Haze  
Wind Chill: 22°   Ceiling: 5000
Heat Index: 31°   Visibility: 5mi
Dew Point: 28°   Wind: 10mph
Humidity: 89%   Direction: 350°N
Pressure: 30.2"   Gusts: NA
Location:  38.84°N, 87.67°W
Report Text: KLWV 270753Z AUTO 35009KT 5SM BR OVC050 M01/M02 A3020 RMK AO2 SLP228 T10061022
Loading
Personal Weather Stations






























Interactive Weather Map New forecast layout! Learn more

10-Day Weather Forecast

Advertisements
Track Severe Weather on mobile